sensor_id;sensor_type;location;lat;lon;timestamp;pressure;altitude;pressure_sealevel;temperature;humidity
25080;BME280;13071;48.868;9.996;2023-09-08T00:00:55;96791.75;;;14.94;92.26
25080;BME280;13071;48.868;9.996;2023-09-08T00:03:22;96785.69;;;14.85;92.20
25080;BME280;13071;48.868;9.996;2023-09-08T00:05:48;96796.75;;;14.92;91.89
25080;BME280;13071;48.868;9.996;2023-09-08T00:08:16;96787.63;;;14.84;92.13
25080;BME280;13071;48.868;9.996;2023-09-08T00:10:43;96785.84;;;14.76;92.97
25080;BME280;13071;48.868;9.996;2023-09-08T00:13:09;96786.84;;;14.68;93.10
25080;BME280;13071;48.868;9.996;2023-09-08T00:15:38;96778.59;;;14.64;93.18
25080;BME280;13071;48.868;9.996;2023-09-08T00:18:05;96783.13;;;14.60;93.00
25080;BME280;13071;48.868;9.996;2023-09-08T00:20:32;96786.31;;;14.62;92.76
25080;BME280;13071;48.868;9.996;2023-09-08T00:22:58;96786.03;;;14.67;92.74
25080;BME280;13071;48.868;9.996;2023-09-08T00:25:26;96784.56;;;14.70;92.78
25080;BME280;13071;48.868;9.996;2023-09-08T00:27:53;96779.34;;;14.81;91.27
25080;BME280;13071;48.868;9.996;2023-09-08T00:30:19;96774.78;;;14.85;92.50
25080;BME280;13071;48.868;9.996;2023-09-08T00:32:46;96779.13;;;15.05;92.41
25080;BME280;13071;48.868;9.996;2023-09-08T00:35:12;96775.75;;;15.27;91.39
25080;BME280;13071;48.868;9.996;2023-09-08T00:37:39;96775.59;;;15.39;89.71
25080;BME280;13071;48.868;9.996;2023-09-08T00:40:07;96773.41;;;15.45;89.32
25080;BME280;13071;48.868;9.996;2023-09-08T00:42:35;96773.66;;;15.55;88.76
25080;BME280;13071;48.868;9.996;2023-09-08T00:45:02;96772.44;;;15.53;88.86
25080;BME280;13071;48.868;9.996;2023-09-08T00:47:29;96775.53;;;15.51;88.89
25080;BME280;13071;48.868;9.996;2023-09-08T00:49:55;96767.50;;;15.59;87.91
25080;BME280;13071;48.868;9.996;2023-09-08T00:52:22;96766.41;;;15.63;87.47
25080;BME280;13071;48.868;9.996;2023-09-08T00:54:49;96768.88;;;15.68;86.81
25080;BME280;13071;48.868;9.996;2023-09-08T00:57:15;96769.66;;;15.69;86.57
25080;BME280;13071;48.868;9.996;2023-09-08T00:59:44;96766.72;;;15.58;87.18
25080;BME280;13071;48.868;9.996;2023-09-08T01:02:11;96765.41;;;15.52;87.40
25080;BME280;13071;48.868;9.996;2023-09-08T01:04:38;96774.72;;;15.51;87.82
25080;BME280;13071;48.868;9.996;2023-09-08T01:07:07;96768.22;;;15.40;88.63
25080;BME280;13071;48.868;9.996;2023-09-08T01:09:34;96772.88;;;15.39;88.11
25080;BME280;13071;48.868;9.996;2023-09-08T01:12:02;96773.97;;;15.35;88.41
25080;BME280;13071;48.868;9.996;2023-09-08T01:14:29;96771.16;;;15.31;88.92
25080;BME280;13071;48.868;9.996;2023-09-08T01:16:58;96768.09;;;15.33;88.75
25080;BME280;13071;48.868;9.996;2023-09-08T01:19:24;96771.38;;;15.23;89.98
25080;BME280;13071;48.868;9.996;2023-09-08T01:22:01;96770.56;;;15.22;89.87
25080;BME280;13071;48.868;9.996;2023-09-08T01:25:11;96774.34;;;14.83;86.19
25080;BME280;13071;48.868;9.996;2023-09-08T01:27:42;96769.50;;;14.60;88.65
25080;BME280;13071;48.868;9.996;2023-09-08T01:30:10;96768.28;;;14.42;89.45
25080;BME280;13071;48.868;9.996;2023-09-08T01:32:39;96765.38;;;14.35;89.85
25080;BME280;13071;48.868;9.996;2023-09-08T01:35:07;96773.06;;;14.17;91.87
25080;BME280;13071;48.868;9.996;2023-09-08T01:37:34;96765.94;;;14.13;92.93
25080;BME280;13071;48.868;9.996;2023-09-08T01:40:00;96772.59;;;14.00;94.77
25080;BME280;13071;48.868;9.996;2023-09-08T01:42:28;96764.31;;;13.96;95.07
25080;BME280;13071;48.868;9.996;2023-09-08T01:44:55;96760.03;;;13.95;95.69
25080;BME280;13071;48.868;9.996;2023-09-08T01:47:22;96758.53;;;13.98;96.37
25080;BME280;13071;48.868;9.996;2023-09-08T01:49:48;96756.44;;;13.91;97.69
25080;BME280;13071;48.868;9.996;2023-09-08T01:52:15;96756.59;;;13.82;97.91
25080;BME280;13071;48.868;9.996;2023-09-08T01:54:42;96762.66;;;13.92;97.66
25080;BME280;13071;48.868;9.996;2023-09-08T01:57:08;96763.34;;;13.89;97.01
25080;BME280;13071;48.868;9.996;2023-09-08T01:59:36;96762.44;;;13.29;100.00
25080;BME280;13071;48.868;9.996;2023-09-08T02:02:03;96763.94;;;13.26;100.00
25080;BME280;13071;48.868;9.996;2023-09-08T02:04:30;96767.06;;;13.40;100.00
25080;BME280;13071;48.868;9.996;2023-09-08T02:06:56;96773.16;;;13.50;100.00
25080;BME280;13071;48.868;9.996;2023-09-08T02:09:30;96775.22;;;13.40;100.00
25080;BME280;13071;48.868;9.996;2023-09-08T02:11:56;96769.88;;;13.44;100.00
25080;BME280;13071;48.868;9.996;2023-09-08T02:14:23;96766.38;;;13.44;100.00
25080;BME280;13071;48.868;9.996;2023-09-08T02:16:51;96764.28;;;13.53;100.00
25080;BME280;13071;48.868;9.996;2023-09-08T02:19:18;96764.84;;;13.58;100.00
25080;BME280;13071;48.868;9.996;2023-09-08T02:21:44;96768.34;;;13.59;100.00
25080;BME280;13071;48.868;9.996;2023-09-08T02:24:11;96763.72;;;13.59;99.94
25080;BME280;13071;48.868;9.996;2023-09-08T02:26:37;96767.56;;;13.58;99.62
25080;BME280;13071;48.868;9.996;2023-09-08T02:29:04;96762.59;;;13.60;99.41
25080;BME280;13071;48.868;9.996;2023-09-08T02:31:31;96769.50;;;13.58;99.23
25080;BME280;13071;48.868;9.996;2023-09-08T02:33:59;96769.16;;;13.59;99.33
25080;BME280;13071;48.868;9.996;2023-09-08T02:36:26;96770.84;;;13.64;98.52
25080;BME280;13071;48.868;9.996;2023-09-08T02:38:54;96765.06;;;13.65;98.24
25080;BME280;13071;48.868;9.996;2023-09-08T02:41:20;96761.97;;;13.67;97.90
25080;BME280;13071;48.868;9.996;2023-09-08T02:43:47;96768.56;;;13.66;97.91
25080;BME280;13071;48.868;9.996;2023-09-08T02:46:14;96757.03;;;13.57;98.28
25080;BME280;13071;48.868;9.996;2023-09-08T02:48:41;96760.19;;;13.59;98.50
25080;BME280;13071;48.868;9.996;2023-09-08T02:51:09;96767.16;;;13.72;98.59
25080;BME280;13071;48.868;9.996;2023-09-08T02:53:37;96767.06;;;13.68;98.85
25080;BME280;13071;48.868;9.996;2023-09-08T02:56:04;96758.09;;;13.80;98.91
25080;BME280;13071;48.868;9.996;2023-09-08T02:58:31;96762.91;;;13.87;98.29
25080;BME280;13071;48.868;9.996;2023-09-08T03:01:09;96764.59;;;13.91;97.70
25080;BME280;13071;48.868;9.996;2023-09-08T03:03:36;96760.56;;;13.85;97.50
25080;BME280;13071;48.868;9.996;2023-09-08T03:06:02;96765.78;;;13.78;97.59
25080;BME280;13071;48.868;9.996;2023-09-08T03:08:30;96762.97;;;13.74;97.45
25080;BME280;13071;48.868;9.996;2023-09-08T03:10:57;96758.66;;;13.73;97.88
25080;BME280;13071;48.868;9.996;2023-09-08T03:13:25;96759.38;;;13.70;97.95
25080;BME280;13071;48.868;9.996;2023-09-08T03:15:51;96756.66;;;13.70;99.00
25080;BME280;13071;48.868;9.996;2023-09-08T03:18:18;96758.25;;;13.71;99.02
25080;BME280;13071;48.868;9.996;2023-09-08T03:20:48;96752.03;;;13.59;97.52
25080;BME280;13071;48.868;9.996;2023-09-08T03:23:14;96751.16;;;13.55;98.35
25080;BME280;13071;48.868;9.996;2023-09-08T03:25:42;96749.22;;;13.55;98.72
25080;BME280;13071;48.868;9.996;2023-09-08T03:28:09;96749.78;;;13.61;98.67
25080;BME280;13071;48.868;9.996;2023-09-08T03:30:36;96744.84;;;13.51;98.68
25080;BME280;13071;48.868;9.996;2023-09-08T03:33:02;96745.50;;;13.48;98.68
25080;BME280;13071;48.868;9.996;2023-09-08T03:35:29;96751.66;;;13.45;98.94
25080;BME280;13071;48.868;9.996;2023-09-08T03:37:55;96746.28;;;13.48;99.59
25080;BME280;13071;48.868;9.996;2023-09-08T03:40:22;96742.78;;;13.48;99.94
25080;BME280;13071;48.868;9.996;2023-09-08T03:42:50;96743.81;;;13.43;99.99
25080;BME280;13071;48.868;9.996;2023-09-08T03:45:17;96738.84;;;13.45;100.00
25080;BME280;13071;48.868;9.996;2023-09-08T03:47:43;96741.66;;;13.49;100.00
25080;BME280;13071;48.868;9.996;2023-09-08T03:50:10;96740.22;;;13.67;100.00
25080;BME280;13071;48.868;9.996;2023-09-08T03:52:36;96743.34;;;13.81;100.00
25080;BME280;13071;48.868;9.996;2023-09-08T03:55:03;96728.69;;;13.86;100.00
25080;BME280;13071;48.868;9.996;2023-09-08T03:57:31;96743.34;;;13.81;100.00
25080;BME280;13071;48.868;9.996;2023-09-08T03:59:59;96742.63;;;13.84;99.76
25080;BME280;13071;48.868;9.996;2023-09-08T04:02:25;96747.66;;;13.98;98.57
25080;BME280;13071;48.868;9.996;2023-09-08T04:04:52;96743.59;;;13.92;97.65
25080;BME280;13071;48.868;9.996;2023-09-08T04:07:18;96746.75;;;13.78;96.01
25080;BME280;13071;48.868;9.996;2023-09-08T04:09:45;96749.28;;;13.71;96.55
25080;BME280;13071;48.868;9.996;2023-09-08T04:12:12;96755.84;;;13.70;96.10
25080;BME280;13071;48.868;9.996;2023-09-08T04:14:38;96757.13;;;13.60;96.57
25080;BME280;13071;48.868;9.996;2023-09-08T04:17:06;96748.53;;;13.58;97.24
25080;BME280;13071;48.868;9.996;2023-09-08T04:19:33;96753.72;;;13.63;98.67
25080;BME280;13071;48.868;9.996;2023-09-08T04:22:00;96749.16;;;13.67;98.88
25080;BME280;13071;48.868;9.996;2023-09-08T04:24:26;96744.97;;;13.70;98.80
25080;BME280;13071;48.868;9.996;2023-09-08T04:26:53;96749.72;;;13.73;98.55
25080;BME280;13071;48.868;9.996;2023-09-08T04:29:19;96743.59;;;13.76;98.65
25080;BME280;13071;48.868;9.996;2023-09-08T04:31:46;96749.47;;;13.78;98.01
25080;BME280;13071;48.868;9.996;2023-09-08T04:34:14;96744.72;;;13.75;97.73
25080;BME280;13071;48.868;9.996;2023-09-08T04:36:40;96740.75;;;13.72;97.54
25080;BME280;13071;48.868;9.996;2023-09-08T04:39:07;96744.28;;;13.73;97.50
25080;BME280;13071;48.868;9.996;2023-09-08T04:41:36;96747.44;;;13.75;97.40
25080;BME280;13071;48.868;9.996;2023-09-08T04:44:03;96739.72;;;13.77;97.30
25080;BME280;13071;48.868;9.996;2023-09-08T04:46:30;96743.72;;;13.67;97.08
25080;BME280;13071;48.868;9.996;2023-09-08T04:48:56;96753.47;;;13.68;96.88
25080;BME280;13071;48.868;9.996;2023-09-08T04:51:24;96758.56;;;13.70;97.34
25080;BME280;13071;48.868;9.996;2023-09-08T04:53:51;96752.53;;;13.76;97.53
25080;BME280;13071;48.868;9.996;2023-09-08T04:56:17;96747.53;;;13.78;97.48
25080;BME280;13071;48.868;9.996;2023-09-08T04:58:44;96747.19;;;13.80;97.30
25080;BME280;13071;48.868;9.996;2023-09-08T05:01:10;96760.78;;;13.52;96.50
25080;BME280;13071;48.868;9.996;2023-09-08T05:03:37;96761.88;;;13.63;96.18
25080;BME280;13071;48.868;9.996;2023-09-08T05:06:04;96762.13;;;13.58;95.49
25080;BME280;13071;48.868;9.996;2023-09-08T05:08:32;96764.38;;;13.28;96.69
25080;BME280;13071;48.868;9.996;2023-09-08T05:10:58;96765.50;;;13.27;96.73
25080;BME280;13071;48.868;9.996;2023-09-08T05:13:25;96767.09;;;13.28;96.66
25080;BME280;13071;48.868;9.996;2023-09-08T05:15:52;96765.63;;;13.31;97.64
25080;BME280;13071;48.868;9.996;2023-09-08T05:18:25;96757.66;;;13.38;98.19
25080;BME280;13071;48.868;9.996;2023-09-08T05:20:52;96772.13;;;13.42;97.69
25080;BME280;13071;48.868;9.996;2023-09-08T05:23:18;96762.72;;;13.52;97.93
25080;BME280;13071;48.868;9.996;2023-09-08T05:25:46;96771.28;;;13.66;97.97
25080;BME280;13071;48.868;9.996;2023-09-08T05:28:13;96775.06;;;13.77;97.63
25080;BME280;13071;48.868;9.996;2023-09-08T05:30:40;96772.41;;;13.93;97.68
25080;BME280;13071;48.868;9.996;2023-09-08T05:33:06;96782.44;;;14.04;96.51
25080;BME280;13071;48.868;9.996;2023-09-08T05:35:33;96785.59;;;14.06;96.02
25080;BME280;13071;48.868;9.996;2023-09-08T05:37:59;96782.88;;;14.06;95.69
25080;BME280;13071;48.868;9.996;2023-09-08T05:40:26;96779.00;;;14.07;96.33
25080;BME280;13071;48.868;9.996;2023-09-08T05:42:54;96777.63;;;14.13;96.33
25080;BME280;13071;48.868;9.996;2023-09-08T05:45:21;96784.50;;;14.23;96.11
25080;BME280;13071;48.868;9.996;2023-09-08T05:47:47;96786.38;;;14.35;96.34
25080;BME280;13071;48.868;9.996;2023-09-08T05:50:16;96788.50;;;14.41;96.46
25080;BME280;13071;48.868;9.996;2023-09-08T05:52:43;96780.44;;;14.45;96.21
25080;BME280;13071;48.868;9.996;2023-09-08T05:55:09;96784.09;;;14.52;96.55
25080;BME280;13071;48.868;9.996;2023-09-08T05:57:36;96784.97;;;14.56;97.01
25080;BME280;13071;48.868;9.996;2023-09-08T06:00:05;96785.97;;;14.64;96.94
25080;BME280;13071;48.868;9.996;2023-09-08T06:02:32;96779.34;;;14.81;96.90
25080;BME280;13071;48.868;9.996;2023-09-08T06:04:58;96778.97;;;14.98;95.97
25080;BME280;13071;48.868;9.996;2023-09-08T06:07:25;96780.31;;;15.04;94.79
25080;BME280;13071;48.868;9.996;2023-09-08T06:09:51;96782.22;;;15.19;93.72
25080;BME280;13071;48.868;9.996;2023-09-08T06:12:18;96782.50;;;15.33;92.96
25080;BME280;13071;48.868;9.996;2023-09-08T06:14:44;96778.03;;;15.60;92.17
25080;BME280;13071;48.868;9.996;2023-09-08T06:17:12;96781.44;;;15.73;92.98
25080;BME280;13071;48.868;9.996;2023-09-08T06:19:39;96781.78;;;15.90;92.74
25080;BME280;13071;48.868;9.996;2023-09-08T06:22:05;96776.66;;;16.08;92.67
25080;BME280;13071;48.868;9.996;2023-09-08T06:24:32;96775.41;;;16.25;93.41
25080;BME280;13071;48.868;9.996;2023-09-08T06:26:59;96767.59;;;16.46;94.12
25080;BME280;13071;48.868;9.996;2023-09-08T06:29:25;96770.41;;;16.72;93.15
25080;BME280;13071;48.868;9.996;2023-09-08T06:31:52;96776.09;;;16.64;92.83
25080;BME280;13071;48.868;9.996;2023-09-08T06:34:20;96766.94;;;16.75;92.52
25080;BME280;13071;48.868;9.996;2023-09-08T06:36:47;96772.31;;;16.95;92.68
25080;BME280;13071;48.868;9.996;2023-09-08T06:39:14;96770.78;;;16.97;92.68
25080;BME280;13071;48.868;9.996;2023-09-08T06:41:40;96770.25;;;17.14;91.23
25080;BME280;13071;48.868;9.996;2023-09-08T06:44:07;96766.72;;;17.40;89.10
25080;BME280;13071;48.868;9.996;2023-09-08T06:46:34;96769.81;;;17.65;87.66
25080;BME280;13071;48.868;9.996;2023-09-08T06:49:00;96766.47;;;17.79;85.69
25080;BME280;13071;48.868;9.996;2023-09-08T06:51:28;96771.69;;;17.91;85.49
25080;BME280;13071;48.868;9.996;2023-09-08T06:53:55;96772.22;;;18.03;85.37
25080;BME280;13071;48.868;9.996;2023-09-08T06:56:22;96770.84;;;18.20;85.34
25080;BME280;13071;48.868;9.996;2023-09-08T06:58:49;96772.53;;;18.32;83.77
25080;BME280;13071;48.868;9.996;2023-09-08T07:01:15;96776.97;;;18.47;82.83
25080;BME280;13071;48.868;9.996;2023-09-08T07:03:42;96780.69;;;18.65;82.73
25080;BME280;13071;48.868;9.996;2023-09-08T07:06:08;96784.75;;;18.78;80.37
25080;BME280;13071;48.868;9.996;2023-09-08T07:08:36;96778.50;;;18.85;80.99
25080;BME280;13071;48.868;9.996;2023-09-08T07:11:03;96781.75;;;18.97;81.34
25080;BME280;13071;48.868;9.996;2023-09-08T07:13:29;96771.66;;;19.09;79.53
25080;BME280;13071;48.868;9.996;2023-09-08T07:15:56;96771.69;;;19.16;79.21
25080;BME280;13071;48.868;9.996;2023-09-08T07:18:23;96777.59;;;19.21;78.18
25080;BME280;13071;48.868;9.996;2023-09-08T07:20:49;96772.56;;;19.30;79.85
25080;BME280;13071;48.868;9.996;2023-09-08T07:23:16;96778.47;;;19.36;79.67
25080;BME280;13071;48.868;9.996;2023-09-08T07:25:46;96768.75;;;19.46;79.24
25080;BME280;13071;48.868;9.996;2023-09-08T07:28:13;96770.78;;;19.59;79.24
25080;BME280;13071;48.868;9.996;2023-09-08T07:30:40;96772.03;;;19.72;79.13
25080;BME280;13071;48.868;9.996;2023-09-08T07:33:06;96770.91;;;19.80;79.08
25080;BME280;13071;48.868;9.996;2023-09-08T07:35:36;96765.81;;;19.86;77.89
25080;BME280;13071;48.868;9.996;2023-09-08T07:38:03;96769.34;;;19.87;78.67
25080;BME280;13071;48.868;9.996;2023-09-08T07:40:29;96770.47;;;19.78;79.06
25080;BME280;13071;48.868;9.996;2023-09-08T07:42:57;96774.47;;;19.99;78.57
25080;BME280;13071;48.868;9.996;2023-09-08T07:45:24;96777.31;;;20.16;76.23
25080;BME280;13071;48.868;9.996;2023-09-08T07:47:50;96784.00;;;20.26;75.13
25080;BME280;13071;48.868;9.996;2023-09-08T07:50:19;96774.63;;;20.34;76.66
25080;BME280;13071;48.868;9.996;2023-09-08T07:52:46;96773.09;;;20.51;73.63
25080;BME280;13071;48.868;9.996;2023-09-08T07:55:13;96771.50;;;20.46;75.39
25080;BME280;13071;48.868;9.996;2023-09-08T07:57:41;96775.06;;;20.61;75.55
25080;BME280;13071;48.868;9.996;2023-09-08T08:00:10;96773.09;;;20.65;77.00
25080;BME280;13071;48.868;9.996;2023-09-08T08:02:37;96763.69;;;20.84;76.02
25080;BME280;13071;48.868;9.996;2023-09-08T08:05:04;96767.22;;;20.98;74.08
25080;BME280;13071;48.868;9.996;2023-09-08T08:07:31;96763.69;;;21.01;72.13
25080;BME280;13071;48.868;9.996;2023-09-08T08:09:58;96770.75;;;21.06;71.81
25080;BME280;13071;48.868;9.996;2023-09-08T08:12:25;96772.69;;;21.12;72.64
25080;BME280;13071;48.868;9.996;2023-09-08T08:14:52;96771.94;;;21.23;72.52
25080;BME280;13071;48.868;9.996;2023-09-08T08:17:20;96766.03;;;21.31;73.23
25080;BME280;13071;48.868;9.996;2023-09-08T08:19:47;96776.66;;;21.29;72.62
25080;BME280;13071;48.868;9.996;2023-09-08T08:22:13;96768.78;;;21.31;74.05
25080;BME280;13071;48.868;9.996;2023-09-08T08:24:40;96764.06;;;21.35;73.46
25080;BME280;13071;48.868;9.996;2023-09-08T08:27:06;96767.94;;;21.56;72.96
25080;BME280;13071;48.868;9.996;2023-09-08T08:29:33;96760.84;;;21.54;70.53
25080;BME280;13071;48.868;9.996;2023-09-08T08:32:00;96764.81;;;21.50;73.63
25080;BME280;13071;48.868;9.996;2023-09-08T08:34:28;96764.81;;;21.50;71.45
25080;BME280;13071;48.868;9.996;2023-09-08T08:36:54;96772.25;;;21.60;72.37
25080;BME280;13071;48.868;9.996;2023-09-08T08:39:21;96767.13;;;21.62;70.09
25080;BME280;13071;48.868;9.996;2023-09-08T08:41:47;96757.63;;;21.77;71.22
25080;BME280;13071;48.868;9.996;2023-09-08T08:44:15;96756.47;;;21.71;71.29
25080;BME280;13071;48.868;9.996;2023-09-08T08:46:45;96759.56;;;21.94;69.97
25080;BME280;13071;48.868;9.996;2023-09-08T08:49:15;96754.00;;;22.05;69.28
25080;BME280;13071;48.868;9.996;2023-09-08T08:51:44;96761.88;;;22.03;72.16
25080;BME280;13071;48.868;9.996;2023-09-08T08:54:12;96750.03;;;22.10;69.77
25080;BME280;13071;48.868;9.996;2023-09-08T08:56:40;96746.06;;;22.18;69.15
25080;BME280;13071;48.868;9.996;2023-09-08T08:59:07;96748.78;;;22.21;69.28
25080;BME280;13071;48.868;9.996;2023-09-08T09:01:36;96751.88;;;22.30;69.53
25080;BME280;13071;48.868;9.996;2023-09-08T09:04:05;96747.09;;;22.42;69.84
25080;BME280;13071;48.868;9.996;2023-09-08T09:06:32;96752.97;;;22.47;70.72
25080;BME280;13071;48.868;9.996;2023-09-08T09:09:00;96754.09;;;22.53;71.77
25080;BME280;13071;48.868;9.996;2023-09-08T09:11:29;96742.22;;;22.60;70.46
25080;BME280;13071;48.868;9.996;2023-09-08T09:13:56;96750.50;;;22.63;67.78
25080;BME280;13071;48.868;9.996;2023-09-08T09:16:22;96750.84;;;22.69;69.48
25080;BME280;13071;48.868;9.996;2023-09-08T09:18:54;96747.22;;;22.83;68.27
25080;BME280;13071;48.868;9.996;2023-09-08T09:21:21;96742.78;;;22.92;68.51
25080;BME280;13071;48.868;9.996;2023-09-08T09:23:48;96745.88;;;23.01;67.28
25080;BME280;13071;48.868;9.996;2023-09-08T09:26:25;96745.16;;;22.94;68.13
25080;BME280;13071;48.868;9.996;2023-09-08T09:28:52;96746.66;;;23.02;69.82
25080;BME280;13071;48.868;9.996;2023-09-08T09:31:22;96746.25;;;23.03;68.99
25080;BME280;13071;48.868;9.996;2023-09-08T09:34:01;96740.69;;;23.07;70.71
25080;BME280;13071;48.868;9.996;2023-09-08T09:36:29;96743.31;;;23.21;66.81
25080;BME280;13071;48.868;9.996;2023-09-08T09:38:58;96751.22;;;23.19;68.11
25080;BME280;13071;48.868;9.996;2023-09-08T09:41:27;96749.69;;;23.14;65.78
25080;BME280;13071;48.868;9.996;2023-09-08T09:43:54;96744.88;;;23.22;67.48
25080;BME280;13071;48.868;9.996;2023-09-08T09:46:21;96744.41;;;23.31;68.63
25080;BME280;13071;48.868;9.996;2023-09-08T09:48:50;96747.06;;;23.41;69.92
25080;BME280;13071;48.868;9.996;2023-09-08T09:51:19;96739.13;;;23.47;68.06
25080;BME280;13071;48.868;9.996;2023-09-08T09:53:46;96743.09;;;23.42;69.67
25080;BME280;13071;48.868;9.996;2023-09-08T09:56:13;96741.78;;;23.57;66.70
25080;BME280;13071;48.868;9.996;2023-09-08T09:58:42;96739.75;;;23.61;66.38
25080;BME280;13071;48.868;9.996;2023-09-08T10:01:11;96746.31;;;23.75;67.19
25080;BME280;13071;48.868;9.996;2023-09-08T10:03:38;96738.81;;;23.75;66.62
25080;BME280;13071;48.868;9.996;2023-09-08T10:06:05;96742.63;;;23.85;66.22
25080;BME280;13071;48.868;9.996;2023-09-08T10:08:34;96740.66;;;23.85;68.27
25080;BME280;13071;48.868;9.996;2023-09-08T10:11:05;96739.06;;;23.88;66.91
25080;BME280;13071;48.868;9.996;2023-09-08T10:13:39;96732.28;;;23.92;65.57
25080;BME280;13071;48.868;9.996;2023-09-08T10:16:08;96737.84;;;23.89;66.27
25080;BME280;13071;48.868;9.996;2023-09-08T10:18:35;96736.66;;;23.90;67.50
25080;BME280;13071;48.868;9.996;2023-09-08T10:21:04;96740.19;;;23.90;67.00
25080;BME280;13071;48.868;9.996;2023-09-08T10:23:35;96734.88;;;24.06;65.30
25080;BME280;13071;48.868;9.996;2023-09-08T10:26:06;96732.34;;;24.19;65.07
25080;BME280;13071;48.868;9.996;2023-09-08T10:28:36;96731.81;;;23.63;65.60
25080;BME280;13071;48.868;9.996;2023-09-08T10:31:02;96728.09;;;23.81;66.44
25080;BME280;13071;48.868;9.996;2023-09-08T10:33:32;96727.50;;;23.93;66.70
25080;BME280;13071;48.868;9.996;2023-09-08T10:35:59;96725.00;;;24.05;65.74
25080;BME280;13071;48.868;9.996;2023-09-08T10:38:30;96727.63;;;24.16;67.74
25080;BME280;13071;48.868;9.996;2023-09-08T10:41:27;96728.03;;;24.15;64.68
25080;BME280;13071;48.868;9.996;2023-09-08T10:43:58;96727.97;;;24.22;64.99
25080;BME280;13071;48.868;9.996;2023-09-08T10:46:28;96722.84;;;24.20;67.94
25080;BME280;13071;48.868;9.996;2023-09-08T10:49:02;96721.72;;;24.14;64.81
25080;BME280;13071;48.868;9.996;2023-09-08T10:51:29;96720.19;;;24.09;66.36
25080;BME280;13071;48.868;9.996;2023-09-08T10:53:56;96708.66;;;24.18;65.28
25080;BME280;13071;48.868;9.996;2023-09-08T10:56:27;96714.88;;;24.26;63.83
25080;BME280;13071;48.868;9.996;2023-09-08T10:58:54;96717.84;;;24.38;66.07
25080;BME280;13071;48.868;9.996;2023-09-08T11:01:21;96706.66;;;24.19;64.05
25080;BME280;13071;48.868;9.996;2023-09-08T11:03:51;96706.66;;;24.19;64.75
25080;BME280;13071;48.868;9.996;2023-09-08T11:06:21;96700.44;;;24.11;66.43
25080;BME280;13071;48.868;9.996;2023-09-08T11:08:49;96709.97;;;24.06;67.53
25080;BME280;13071;48.868;9.996;2023-09-08T11:11:18;96710.75;;;24.07;65.39
25080;BME280;13071;48.868;9.996;2023-09-08T11:13:45;96706.78;;;24.38;66.80
25080;BME280;13071;48.868;9.996;2023-09-08T11:16:13;96703.19;;;24.41;67.50
25080;BME280;13071;48.868;9.996;2023-09-08T11:18:40;96708.03;;;24.61;66.56
25080;BME280;13071;48.868;9.996;2023-09-08T11:21:09;96715.50;;;24.37;65.92
25080;BME280;13071;48.868;9.996;2023-09-08T11:23:37;96707.56;;;24.39;65.40
25080;BME280;13071;48.868;9.996;2023-09-08T11:26:05;96705.31;;;24.30;65.64
25080;BME280;13071;48.868;9.996;2023-09-08T11:28:34;96708.03;;;24.61;64.86
25080;BME280;13071;48.868;9.996;2023-09-08T11:31:01;96714.56;;;24.47;65.81
25080;BME280;13071;48.868;9.996;2023-09-08T11:33:33;96708.44;;;24.59;66.34
25080;BME280;13071;48.868;9.996;2023-09-08T11:36:00;96715.41;;;24.67;65.16
25080;BME280;13071;48.868;9.996;2023-09-08T11:38:27;96712.72;;;24.64;64.75
25080;BME280;13071;48.868;9.996;2023-09-08T11:40:57;96708.75;;;24.65;64.52
25080;BME280;13071;48.868;9.996;2023-09-08T11:43:25;96709.69;;;24.78;64.64
25080;BME280;13071;48.868;9.996;2023-09-08T11:45:52;96707.78;;;24.75;66.80
25080;BME280;13071;48.868;9.996;2023-09-08T11:48:19;96706.94;;;24.78;64.99
25080;BME280;13071;48.868;9.996;2023-09-08T11:50:45;96712.91;;;24.76;64.44
25080;BME280;13071;48.868;9.996;2023-09-08T11:53:12;96703.16;;;24.91;66.06
25080;BME280;13071;48.868;9.996;2023-09-08T11:55:39;96703.78;;;25.03;63.91
25080;BME280;13071;48.868;9.996;2023-09-08T11:58:07;96704.31;;;25.17;64.73
25080;BME280;13071;48.868;9.996;2023-09-08T12:00:34;96705.09;;;25.18;63.73
25080;BME280;13071;48.868;9.996;2023-09-08T12:03:10;96706.00;;;25.31;62.86
25080;BME280;13071;48.868;9.996;2023-09-08T12:05:37;96697.66;;;25.34;63.35
25080;BME280;13071;48.868;9.996;2023-09-08T12:08:05;96700.84;;;25.33;62.18
25080;BME280;13071;48.868;9.996;2023-09-08T12:10:37;96703.31;;;25.27;61.23
25080;BME280;13071;48.868;9.996;2023-09-08T12:13:04;96693.72;;;25.12;61.62
25080;BME280;13071;48.868;9.996;2023-09-08T12:15:33;96700.13;;;25.29;61.85
25080;BME280;13071;48.868;9.996;2023-09-08T12:18:01;96696.50;;;25.32;61.26
25080;BME280;13071;48.868;9.996;2023-09-08T12:20:28;96694.66;;;25.25;63.19
25080;BME280;13071;48.868;9.996;2023-09-08T12:22:57;96688.19;;;25.32;61.30
25080;BME280;13071;48.868;9.996;2023-09-08T12:25:24;96692.31;;;25.24;62.57
25080;BME280;13071;48.868;9.996;2023-09-08T12:27:53;96689.75;;;25.33;62.07
25080;BME280;13071;48.868;9.996;2023-09-08T12:30:21;96683.66;;;25.42;61.33
25080;BME280;13071;48.868;9.996;2023-09-08T12:32:56;96679.84;;;25.35;61.76
25080;BME280;13071;48.868;9.996;2023-09-08T12:35:24;96674.84;;;25.47;63.34
25080;BME280;13071;48.868;9.996;2023-09-08T12:37:57;96679.78;;;25.59;65.67
25080;BME280;13071;48.868;9.996;2023-09-08T12:40:25;96682.63;;;25.75;61.18
25080;BME280;13071;48.868;9.996;2023-09-08T12:42:52;96678.22;;;25.77;62.34
25080;BME280;13071;48.868;9.996;2023-09-08T12:45:20;96689.31;;;25.58;61.66
25080;BME280;13071;48.868;9.996;2023-09-08T12:47:47;96684.19;;;25.56;60.80
25080;BME280;13071;48.868;9.996;2023-09-08T12:50:15;96664.44;;;25.74;63.56
25080;BME280;13071;48.868;9.996;2023-09-08T12:52:41;96682.78;;;25.68;60.06
25080;BME280;13071;48.868;9.996;2023-09-08T12:55:08;96672.38;;;25.52;60.09
25080;BME280;13071;48.868;9.996;2023-09-08T12:57:36;96670.47;;;25.49;60.35
25080;BME280;13071;48.868;9.996;2023-09-08T13:00:04;96669.28;;;25.70;60.43
25080;BME280;13071;48.868;9.996;2023-09-08T13:02:31;96669.97;;;25.74;59.85